Time;durP1;ratioP1;P1;durP2;ratioP2;P2;SDS_P1;SDS_P2;PMS_P1;PMS_P2;Temp;Humidity;BMP_temperature;BMP_pressure;BME280_temperature;BME280_humidity;BME280_pressure;Samples;Min_cycle;Max_cycle;Signal;HPM_P1;HPM_P2
2021/12/26 00:01:30;;;;;;;0.00;0.00;;;-5.20;99.90;;;;;;5119194;27;20086;-81
2021/12/26 00:03:55;;;;;;;0.00;0.00;;;-5.20;99.90;;;;;;5120256;27;20082;-81
2021/12/26 00:06:28;;;;;;;0.00;0.00;;;-5.20;99.90;;;;;;5119537;27;20478;-81
2021/12/26 00:08:56;;;;;;;0.00;0.00;;;-5.20;99.90;;;;;;5119912;27;20049;-81
2021/12/26 00:11:23;;;;;;;0.00;0.00;;;-5.20;99.90;;;;;;5119625;27;20153;-81
2021/12/26 00:13:50;;;;;;;0.32;0.32;;;-5.30;99.90;;;;;;5119560;27;20473;-81
2021/12/26 00:16:16;;;;;;;0.00;0.00;;;-5.20;99.90;;;;;;5119222;27;20600;-81
2021/12/26 00:18:44;;;;;;;0.00;0.00;;;-5.20;99.90;;;;;;5119323;27;20042;-81
2021/12/26 00:21:14;;;;;;;0.00;0.00;;;-5.30;99.90;;;;;;5119481;27;20129;-81
2021/12/26 00:23:39;;;;;;;0.00;0.00;;;-5.20;99.90;;;;;;5120236;27;20043;-82
2021/12/26 00:26:05;;;;;;;0.43;0.43;;;-5.30;99.90;;;;;;5120198;27;20041;-82
2021/12/26 00:28:31;;;;;;;0.00;0.00;;;-5.30;99.90;;;;;;5120186;27;20535;-82
2021/12/26 00:30:57;;;;;;;0.00;0.00;;;-5.40;99.90;;;;;;5120343;27;20047;-82
2021/12/26 00:33:23;;;;;;;0.00;0.00;;;-5.20;99.90;;;;;;5137575;27;20089;-82
2021/12/26 00:35:49;;;;;;;0.10;0.10;;;-5.30;99.90;;;;;;5120008;27;20047;-82
2021/12/26 00:38:16;;;;;;;0.00;0.00;;;-5.30;99.90;;;;;;5119831;27;20043;-82
2021/12/26 00:40:42;;;;;;;0.00;0.00;;;-5.30;99.90;;;;;;5120553;27;20065;-81
2021/12/26 00:43:08;;;;;;;0.00;0.00;;;-5.40;99.90;;;;;;5119817;27;20470;-82
2021/12/26 00:45:34;;;;;;;0.00;0.00;;;-5.40;99.90;;;;;;5119074;27;20047;-82
2021/12/26 00:48:00;;;;;;;4.68;1.25;;;-5.40;99.90;;;;;;5136256;27;20047;-82
2021/12/26 00:50:29;;;;;;;3.55;0.80;;;-4.70;99.90;;;;;;5136333;27;20069;-82
2021/12/26 00:52:56;;;;;;;0.00;0.00;;;-5.40;99.90;;;;;;5119631;27;20452;-82
2021/12/26 00:55:23;;;;;;;0.00;0.00;;;-5.40;99.90;;;;;;5119572;27;20442;-82
2021/12/26 00:57:48;;;;;;;0.00;0.00;;;-5.40;99.90;;;;;;5118868;27;20039;-82
2021/12/26 01:00:22;;;;;;;0.00;0.00;;;-5.40;99.90;;;;;;5136049;27;20055;-82
2021/12/26 01:02:49;;;;;;;0.00;0.00;;;-5.40;99.90;;;;;;5136903;27;20050;-82
2021/12/26 01:05:15;;;;;;;0.22;0.22;;;-5.40;99.90;;;;;;5119741;27;20427;-83
2021/12/26 01:07:57;;;;;;;0.00;0.00;;;-5.40;99.90;;;;;;5136351;27;20478;-82
2021/12/26 01:10:26;;;;;;;0.00;0.00;;;-5.40;99.90;;;;;;5119578;27;20389;-82
2021/12/26 01:12:53;;;;;;;0.00;0.00;;;-5.40;99.90;;;;;;5136463;27;20071;-82
2021/12/26 01:15:22;;;;;;;0.00;0.00;;;-5.40;99.90;;;;;;5119265;27;20074;-82
2021/12/26 01:17:54;;;;;;;0.08;0.05;;;-5.50;99.90;;;;;;5136285;27;20399;-83
2021/12/26 01:20:39;;;;;;;0.00;0.00;;;-5.50;99.90;;;;;;5137418;27;20043;-83
2021/12/26 01:23:05;;;;;;;0.00;0.00;;;-5.40;99.90;;;;;;5119492;27;20054;-83
2021/12/26 01:25:31;;;;;;;0.00;0.00;;;-5.40;99.90;;;;;;5136650;27;20043;-83
2021/12/26 01:27:57;;;;;;;0.00;0.00;;;-5.20;99.90;;;;;;5136373;27;20046;-83
2021/12/26 01:30:22;;;;;;;0.17;0.17;;;-5.40;99.90;;;;;;5136151;27;20047;-83
2021/12/26 01:32:48;;;;;;;0.00;0.00;;;-5.40;99.90;;;;;;5119337;27;20435;-83
2021/12/26 01:35:14;;;;;;;0.00;0.00;;;-5.40;99.90;;;;;;5119040;27;20460;-83
2021/12/26 01:37:40;;;;;;;0.00;0.00;;;-4.90;99.90;;;;;;5118715;27;20042;-83
2021/12/26 01:40:06;;;;;;;0.00;0.00;;;-5.40;99.90;;;;;;5135406;27;20035;-83
2021/12/26 01:42:33;;;;;;;0.00;0.00;;;-5.40;99.90;;;;;;5118202;27;20058;-83
2021/12/26 01:44:59;;;;;;;0.00;0.00;;;-4.70;99.90;;;;;;5135840;27;20121;-83
2021/12/26 01:47:26;;;;;;;0.00;0.00;;;-5.50;99.90;;;;;;5118854;27;20049;-83
2021/12/26 01:49:52;;;;;;;0.00;0.00;;;-5.50;99.90;;;;;;5118286;27;20082;-83
2021/12/26 01:52:18;;;;;;;0.00;0.00;;;-5.50;99.90;;;;;;5118109;27;20086;-83
2021/12/26 01:54:49;;;;;;;0.00;0.00;;;-5.40;99.90;;;;;;5134617;27;20051;-83
2021/12/26 01:57:18;;;;;;;0.00;0.00;;;-5.50;99.90;;;;;;5117926;27;20039;-83
2021/12/26 01:59:46;;;;;;;0.00;0.00;;;-5.50;99.90;;;;;;5134037;27;20084;-83
2021/12/26 02:02:13;;;;;;;0.00;0.00;;;-5.50;99.90;;;;;;5134623;27;20051;-83
2021/12/26 02:04:40;;;;;;;0.00;0.00;;;-5.50;99.90;;;;;;5134716;27;20057;-83
2021/12/26 02:07:08;;;;;;;0.70;0.70;;;-5.50;99.90;;;;;;5134511;27;20077;-83
2021/12/26 02:09:34;;;;;;;1.20;1.13;;;-5.50;99.90;;;;;;5117527;27;20055;-83
2021/12/26 02:12:00;;;;;;;0.00;0.00;;;-5.50;99.90;;;;;;5118105;27;20133;-83
2021/12/26 02:14:26;;;;;;;0.00;0.00;;;-5.50;99.90;;;;;;5134608;27;20082;-83
2021/12/26 02:16:52;;;;;;;0.00;0.00;;;-5.50;99.90;;;;;;5135208;27;20139;-83
2021/12/26 02:19:18;;;;;;;0.00;0.00;;;-5.50;99.90;;;;;;5118363;27;20478;-83
2021/12/26 02:29:24;;;;;;;0.00;0.00;;;-5.50;99.90;;;;;;5136063;27;20043;-83
2021/12/26 02:31:52;;;;;;;0.20;0.20;;;-5.50;99.90;;;;;;5118276;27;20047;-83
2021/12/26 02:34:18;;;;;;;0.00;0.00;;;-5.10;99.90;;;;;;5118000;27;20043;-83
2021/12/26 02:36:44;;;;;;;0.00;0.00;;;-5.60;99.90;;;;;;5134949;27;20046;-83
2021/12/26 02:39:10;;;;;;;0.00;0.00;;;-5.50;99.90;;;;;;5117719;27;20051;-83
2021/12/26 02:41:36;;;;;;;0.00;0.00;;;-5.40;99.90;;;;;;5117770;27;20039;-83
2021/12/26 02:44:02;;;;;;;0.38;0.38;;;-5.60;99.90;;;;;;5134952;27;20427;-83
2021/12/26 02:46:28;;;;;;;0.00;0.00;;;-5.70;99.90;;;;;;5117369;27;20043;-83
2021/12/26 02:48:54;;;;;;;0.00;0.00;;;-5.60;99.90;;;;;;5117797;27;20043;-83
2021/12/26 02:51:20;;;;;;;0.00;0.00;;;-5.60;99.90;;;;;;5117668;27;20050;-83
2021/12/26 02:53:48;;;;;;;0.00;0.00;;;-5.50;99.90;;;;;;5134878;27;20047;-83
2021/12/26 02:56:15;;;;;;;0.00;0.00;;;-5.60;99.90;;;;;;5117390;27;20051;-83
2021/12/26 02:58:42;;;;;;;0.00;0.00;;;-5.60;99.90;;;;;;5117042;28;20051;-83
2021/12/26 03:01:17;;;;;;;0.00;0.00;;;-5.60;99.90;;;;;;5117402;27;20376;-83
2021/12/26 03:03:43;;;;;;;0.00;0.00;;;-5.60;99.90;;;;;;5117734;28;20051;-83
2021/12/26 03:06:19;;;;;;;0.00;0.00;;;-5.60;99.90;;;;;;5133916;27;20118;-83
2021/12/26 03:08:47;;;;;;;0.08;0.08;;;-5.60;99.90;;;;;;5116721;28;20043;-83
2021/12/26 03:11:12;;;;;;;0.00;0.00;;;-5.30;99.90;;;;;;5116348;28;20092;-83
2021/12/26 03:13:38;;;;;;;0.00;0.00;;;-5.60;99.90;;;;;;5116863;28;20047;-83
2021/12/26 03:16:04;;;;;;;0.00;0.00;;;-5.70;99.90;;;;;;5134123;27;20054;-82
2021/12/26 03:18:30;;;;;;;0.00;0.00;;;-5.70;99.90;;;;;;5134222;27;20035;-83
2021/12/26 03:20:55;;;;;;;0.00;0.00;;;-5.70;99.90;;;;;;5134191;27;20457;-83
2021/12/26 03:23:26;;;;;;;0.00;0.00;;;-5.40;99.90;;;;;;5117209;28;20417;-82
2021/12/26 03:26:02;;;;;;;0.00;0.00;;;-5.60;99.90;;;;;;5116906;28;20127;-83
2021/12/26 03:28:29;;;;;;;0.00;0.00;;;-5.60;99.90;;;;;;5116947;28;20051;-83
2021/12/26 03:30:56;;;;;;;0.08;0.08;;;-5.60;99.90;;;;;;5116820;28;20050;-83
2021/12/26 03:33:24;;;;;;;0.00;0.00;;;-5.60;99.90;;;;;;5116697;27;20047;-83
2021/12/26 03:35:50;;;;;;;0.70;0.70;;;-5.10;99.90;;;;;;5121462;27;20134;-83
2021/12/26 03:38:17;;;;;;;0.00;0.00;;;-5.60;99.90;;;;;;5119929;27;20039;-83
2021/12/26 03:40:45;;;;;;;0.00;0.00;;;-5.60;99.90;;;;;;5120402;27;20039;-83
2021/12/26 03:43:11;;;;;;;0.00;0.00;;;-5.60;99.90;;;;;;5120026;27;20035;-83
2021/12/26 03:45:38;;;;;;;0.00;0.00;;;-5.70;99.90;;;;;;5137486;27;20134;-83
2021/12/26 03:48:04;;;;;;;0.00;0.00;;;-5.60;99.90;;;;;;5120326;27;20050;-83
2021/12/26 03:50:32;;;;;;;0.00;0.00;;;-5.60;99.90;;;;;;5120896;27;20054;-83
2021/12/26 03:52:58;;;;;;;0.30;0.30;;;-5.60;99.90;;;;;;5121344;27;20039;-83
2021/12/26 03:55:28;;;;;;;0.00;0.00;;;-5.60;99.90;;;;;;5121018;27;20084;-83
2021/12/26 03:57:54;;;;;;;0.00;0.00;;;-4.90;99.90;;;;;;5120526;27;20043;-83
2021/12/26 04:00:22;;;;;;;0.00;0.00;;;-5.60;99.90;;;;;;5119913;27;20054;-83
2021/12/26 04:02:48;;;;;;;0.30;0.30;;;-5.60;99.90;;;;;;5120786;27;20126;-83
2021/12/26 04:05:15;;;;;;;0.00;0.00;;;-5.60;99.90;;;;;;5137533;27;20086;-83
2021/12/26 04:07:42;;;;;;;0.32;0.32;;;-5.60;99.90;;;;;;5137843;27;20152;-83
2021/12/26 04:10:09;;;;;;;0.00;0.00;;;-5.60;99.90;;;;;;5120793;27;20524;-83
2021/12/26 04:12:37;;;;;;;0.00;0.00;;;-5.60;99.90;;;;;;5120648;27;20047;-83
2021/12/26 04:15:09;;;;;;;0.00;0.00;;;-5.20;99.90;;;;;;5120380;27;20130;-83
2021/12/26 04:17:35;;;;;;;0.85;0.85;;;-5.50;99.90;;;;;;5120958;27;20039;-83
2021/12/26 04:20:03;;;;;;;0.00;0.00;;;-5.60;99.90;;;;;;5119679;27;20505;-83
2021/12/26 04:22:28;;;;;;;1.05;0.40;;;-5.60;99.90;;;;;;5120281;27;20085;-83
2021/12/26 04:24:54;;;;;;;0.00;0.00;;;-5.50;99.90;;;;;;5121184;27;20039;-83
2021/12/26 04:27:21;;;;;;;0.43;0.43;;;-5.50;99.90;;;;;;5119410;27;20086;-83
2021/12/26 04:29:48;;;;;;;0.00;0.00;;;-5.50;99.90;;;;;;5119082;27;20047;-83
2021/12/26 04:32:14;;;;;;;0.00;0.00;;;-5.60;99.90;;;;;;5120033;27;20139;-83
2021/12/26 04:34:40;;;;;;;0.00;0.00;;;-5.60;99.90;;;;;;5120144;27;20046;-83
2021/12/26 04:37:05;;;;;;;0.00;0.00;;;-5.60;99.90;;;;;;5119765;27;20036;-83
2021/12/26 04:39:31;;;;;;;0.00;0.00;;;-5.50;99.90;;;;;;5119100;27;20398;-83
2021/12/26 04:41:57;;;;;;;0.15;0.15;;;-4.90;99.90;;;;;;5136337;27;20050;-83
2021/12/26 04:44:24;;;;;;;0.00;0.00;;;-5.50;99.90;;;;;;5137126;27;20092;-83
2021/12/26 04:46:50;;;;;;;0.00;0.00;;;-5.50;99.90;;;;;;5118332;27;20095;-83
2021/12/26 04:49:16;;;;;;;0.00;0.00;;;-5.60;99.90;;;;;;5136178;27;20533;-83
2021/12/26 04:51:42;;;;;;;0.00;0.00;;;-5.60;99.90;;;;;;5118817;27;20482;-83
2021/12/26 04:54:07;;;;;;;3.20;2.85;;;-5.50;99.90;;;;;;5135828;27;20126;-83
2021/12/26 04:56:33;;;;;;;0.30;0.30;;;-5.50;99.90;;;;;;5118831;27;20043;-83
2021/12/26 04:58:59;;;;;;;0.20;0.20;;;-5.50;99.90;;;;;;5135099;27;20104;-83
2021/12/26 05:01:25;;;;;;;0.00;0.00;;;-5.50;99.90;;;;;;5119446;27;20055;-83
2021/12/26 05:03:51;;;;;;;0.00;0.00;;;-5.50;99.90;;;;;;5135824;27;20390;-83
2021/12/26 05:06:17;;;;;;;0.00;0.00;;;-5.50;99.90;;;;;;5135852;27;20047;-83
2021/12/26 05:08:43;;;;;;;0.00;0.00;;;-5.50;99.90;;;;;;5119547;27;20036;-83
2021/12/26 05:11:09;;;;;;;0.00;0.00;;;-5.50;99.90;;;;;;5118215;27;20511;-83
2021/12/26 05:13:35;;;;;;;0.00;0.00;;;-5.50;99.90;;;;;;5118823;27;20082;-83
2021/12/26 05:16:00;;;;;;;1.10;1.10;;;-5.50;99.90;;;;;;5118141;27;20039;-83
2021/12/26 05:18:26;;;;;;;0.00;0.00;;;-5.50;99.90;;;;;;5135396;27;20043;-83
2021/12/26 05:20:52;;;;;;;0.00;0.00;;;-5.00;99.90;;;;;;5117507;27;20043;-83
2021/12/26 05:23:18;;;;;;;1.75;1.65;;;-4.90;99.90;;;;;;5118699;27;20051;-83
2021/12/26 05:25:43;;;;;;;8.75;1.48;;;-5.50;99.90;;;;;;5135340;27;20050;-83
2021/12/26 05:28:09;;;;;;;0.00;0.00;;;-5.50;99.90;;;;;;5117927;27;20375;-83
2021/12/26 05:30:35;;;;;;;0.00;0.00;;;-5.20;99.90;;;;;;5134938;27;20112;-83
2021/12/26 05:33:01;;;;;;;0.00;0.00;;;-5.40;99.90;;;;;;5135122;27;20039;-82
2021/12/26 05:35:27;;;;;;;0.00;0.00;;;-5.40;99.70;;;;;;5118173;27;20039;-83
2021/12/26 05:37:53;;;;;;;0.00;0.00;;;-5.40;99.90;;;;;;5135838;27;20486;-83
2021/12/26 05:40:19;;;;;;;0.00;0.00;;;-5.40;99.90;;;;;;5118770;27;20043;-84
2021/12/26 05:42:45;;;;;;;0.00;0.00;;;-5.50;99.90;;;;;;5118741;27;20126;-83
2021/12/26 05:45:12;;;;;;;0.10;0.05;;;-5.50;99.90;;;;;;5118382;27;20058;-83
2021/12/26 05:47:38;;;;;;;0.00;0.00;;;-5.20;99.90;;;;;;5118994;27;20039;-83
2021/12/26 05:50:05;;;;;;;0.00;0.00;;;-5.50;99.90;;;;;;5118378;27;20115;-83
2021/12/26 05:52:31;;;;;;;0.00;0.00;;;-5.50;99.90;;;;;;5118380;27;20129;-83
2021/12/26 05:54:57;;;;;;;0.00;0.00;;;-5.50;99.90;;;;;;5135783;27;20469;-83
2021/12/26 05:57:23;;;;;;;0.10;0.10;;;-5.50;99.70;;;;;;5134168;27;20050;-83
2021/12/26 05:59:49;;;;;;;0.00;0.00;;;-5.40;99.90;;;;;;5134620;27;20054;-83
2021/12/26 06:02:15;;;;;;;0.00;0.00;;;-5.40;99.90;;;;;;5117924;27;20379;-83
2021/12/26 06:04:41;;;;;;;0.15;0.15;;;-5.40;99.40;;;;;;5117526;27;20051;-83
2021/12/26 06:07:07;;;;;;;0.00;0.00;;;-5.40;99.10;;;;;;5118377;27;20504;-83
2021/12/26 06:09:33;;;;;;;0.00;0.00;;;-5.40;99.90;;;;;;5135779;27;20043;-83
2021/12/26 06:11:58;;;;;;;0.00;0.00;;;-5.30;99.30;;;;;;5118416;27;20036;-83
2021/12/26 06:14:24;;;;;;;0.00;0.00;;;-5.40;99.70;;;;;;5118019;27;20058;-83
2021/12/26 06:16:50;;;;;;;0.00;0.00;;;-5.20;99.50;;;;;;5118309;27;20062;-83
2021/12/26 06:19:16;;;;;;;0.00;0.00;;;-5.20;99.30;;;;;;5118523;27;20393;-83
2021/12/26 06:21:41;;;;;;;0.00;0.00;;;-5.30;98.70;;;;;;5118348;27;20043;-83
2021/12/26 06:24:08;;;;;;;0.00;0.00;;;-5.30;98.50;;;;;;5118028;27;20049;-83
2021/12/26 06:26:34;;;;;;;0.00;0.00;;;-5.20;98.20;;;;;;5118016;27;20068;-83
2021/12/26 06:29:00;;;;;;;0.03;0.03;;;-5.30;98.80;;;;;;5118271;27;20042;-83
2021/12/26 06:31:26;;;;;;;0.00;0.00;;;-5.30;99.20;;;;;;5117809;27;20500;-83
2021/12/26 06:33:52;;;;;;;0.00;0.00;;;-5.40;99.10;;;;;;5134664;27;20057;-83
2021/12/26 06:36:18;;;;;;;0.00;0.00;;;-5.40;99.40;;;;;;5135177;27;20075;-83
2021/12/26 06:38:45;;;;;;;0.00;0.00;;;-4.90;98.70;;;;;;5134599;27;20039;-83
2021/12/26 06:41:15;;;;;;;0.00;0.00;;;-5.40;99.20;;;;;;5117999;27;20079;-82
2021/12/26 06:43:42;;;;;;;0.00;0.00;;;-5.40;99.00;;;;;;5117897;27;20078;-83
2021/12/26 06:46:08;;;;;;;0.10;0.10;;;-5.40;98.70;;;;;;5135385;27;20053;-83
2021/12/26 06:48:34;;;;;;;0.00;0.00;;;-5.30;99.00;;;;;;5118043;27;20482;-83
2021/12/26 06:51:01;;;;;;;2.25;1.25;;;-5.30;99.40;;;;;;5134946;27;20054;-83
2021/12/26 06:53:27;;;;;;;0.00;0.00;;;-5.30;99.00;;;;;;5134797;27;20039;-83
2021/12/26 06:55:52;;;;;;;0.17;0.17;;;-5.30;99.20;;;;;;5118350;27;20091;-83
2021/12/26 06:58:18;;;;;;;0.00;0.00;;;-4.90;99.20;;;;;;5134149;27;20493;-84
2021/12/26 07:00:44;;;;;;;0.00;0.00;;;-5.40;99.10;;;;;;5116440;28;20494;-83
2021/12/26 07:03:10;;;;;;;0.08;0.08;;;-5.30;99.70;;;;;;5116331;27;20399;-82
2021/12/26 07:05:37;;;;;;;0.15;0.15;;;-5.40;99.00;;;;;;5116535;28;20054;-83
2021/12/26 07:08:03;;;;;;;0.00;0.00;;;-5.40;98.90;;;;;;5133679;27;20047;-83
2021/12/26 07:10:29;;;;;;;0.00;0.00;;;-5.40;99.30;;;;;;5116970;28;20479;-82
2021/12/26 07:12:55;;;;;;;0.00;0.00;;;-5.40;99.70;;;;;;5134387;27;20130;-83
2021/12/26 07:15:21;;;;;;;0.00;0.00;;;-5.40;99.90;;;;;;5144115;27;20126;-83
2021/12/26 07:17:47;;;;;;;0.00;0.00;;;-5.40;99.90;;;;;;5155168;27;20038;-82
2021/12/26 07:20:16;;;;;;;0.00;0.00;;;-5.10;99.90;;;;;;5147314;27;20047;-83
2021/12/26 07:22:44;;;;;;;0.00;0.00;;;-5.50;99.90;;;;;;5116895;27;20119;-83
2021/12/26 07:25:10;;;;;;;0.00;0.00;;;-5.50;99.90;;;;;;5117652;28;20047;-83
2021/12/26 07:27:36;;;;;;;0.05;0.05;;;-5.30;99.90;;;;;;5117118;28;20035;-83
2021/12/26 07:30:03;;;;;;;0.00;0.00;;;-5.30;99.90;;;;;;5134080;27;20050;-83
2021/12/26 07:32:30;;;;;;;1.30;1.30;;;-5.50;99.90;;;;;;5124591;27;20054;-82
2021/12/26 07:34:57;;;;;;;0.00;0.00;;;-5.50;99.90;;;;;;5137542;27;20047;-83
2021/12/26 07:37:23;;;;;;;0.00;0.00;;;-5.50;99.90;;;;;;5154108;27;20039;-82
2021/12/26 07:39:50;;;;;;;0.00;0.00;;;-5.60;99.90;;;;;;5136926;27;20055;-83
2021/12/26 07:42:15;;;;;;;0.00;0.00;;;-5.60;99.90;;;;;;5154006;27;20038;-82
2021/12/26 07:44:41;;;;;;;0.00;0.00;;;-5.60;99.90;;;;;;5137152;27;20565;-82
2021/12/26 07:47:07;;;;;;;0.00;0.00;;;-5.50;99.90;;;;;;5137885;27;20046;-82
2021/12/26 07:49:33;;;;;;;0.00;0.00;;;-4.90;99.90;;;;;;5137565;27;20411;-82
2021/12/26 07:51:59;;;;;;;0.00;0.00;;;-5.10;99.90;;;;;;5154596;27;20039;-82
2021/12/26 07:54:26;;;;;;;0.32;0.32;;;-5.60;99.90;;;;;;5138189;27;20482;-82
2021/12/26 07:56:54;;;;;;;0.13;0.13;;;-5.50;99.90;;;;;;5137494;27;20160;-82
2021/12/26 07:59:20;;;;;;;0.00;0.00;;;-5.50;99.90;;;;;;5154542;27;20101;-84
2021/12/26 08:01:47;;;;;;;0.00;0.00;;;-5.50;99.90;;;;;;5155418;27;20051;-91
2021/12/26 08:04:13;;;;;;;0.00;0.00;;;-5.50;99.90;;;;;;5137787;27;20513;-83
2021/12/26 08:06:40;;;;;;;0.13;0.13;;;-5.40;99.90;;;;;;5137505;27;20049;-84
2021/12/26 08:09:07;;;;;;;0.00;0.00;;;-5.60;99.90;;;;;;5128689;28;20039;-83
2021/12/26 08:11:33;;;;;;;0.10;0.10;;;-5.50;99.90;;;;;;5117332;28;20079;-86
2021/12/26 08:13:59;;;;;;;0.00;0.00;;;-4.60;99.90;;;;;;5117085;28;20462;-84
2021/12/26 08:16:28;;;;;;;0.00;0.00;;;-5.40;99.90;;;;;;5116644;28;20035;-81
2021/12/26 08:18:55;;;;;;;0.00;0.00;;;-5.40;99.90;;;;;;5133520;27;20050;-82
2021/12/26 08:21:21;;;;;;;0.55;0.55;;;-5.40;99.90;;;;;;5135407;27;20130;-83
2021/12/26 08:23:46;;;;;;;0.00;0.00;;;-5.30;99.90;;;;;;5137650;27;20505;-83
2021/12/26 08:26:13;;;;;;;0.00;0.00;;;-5.30;99.90;;;;;;5137774;27;20031;-82
2021/12/26 08:28:39;;;;;;;3.92;0.80;;;-5.20;99.90;;;;;;5119402;27;20379;-82
2021/12/26 08:31:05;;;;;;;0.00;0.00;;;-5.20;99.90;;;;;;5131036;27;20059;-84
2021/12/26 08:33:31;;;;;;;0.00;0.00;;;-5.20;99.90;;;;;;5119526;27;20054;-84
2021/12/26 08:35:57;;;;;;;0.85;0.85;;;-5.00;99.90;;;;;;5152305;27;20072;-84
2021/12/26 08:38:23;;;;;;;1.02;1.02;;;-5.20;99.90;;;;;;5139768;27;20068;-84
2021/12/26 08:40:54;;;;;;;0.00;0.00;;;-5.20;99.90;;;;;;5156435;27;20517;-85
2021/12/26 08:43:20;;;;;;;0.43;0.20;;;-4.60;99.90;;;;;;5139427;27;20459;-84
2021/12/26 08:45:47;;;;;;;0.10;0.10;;;-4.90;99.90;;;;;;5156749;27;20078;-84
2021/12/26 08:48:13;;;;;;;0.00;0.00;;;-5.00;99.90;;;;;;5140128;27;20050;-84
2021/12/26 08:50:38;;;;;;;0.00;0.00;;;-4.90;99.90;;;;;;5118960;27;20039;-84
2021/12/26 08:53:04;;;;;;;0.00;0.00;;;-4.80;99.90;;;;;;5118352;27;20055;-85
2021/12/26 08:55:31;;;;;;;0.00;0.00;;;-4.00;99.90;;;;;;5118363;27;20102;-85
2021/12/26 08:57:58;;;;;;;0.15;0.13;;;-3.80;97.60;;;;;;5118609;27;20036;-84
2021/12/26 09:00:24;;;;;;;0.00;0.00;;;-3.20;97.90;;;;;;5118260;27;20092;-84
2021/12/26 09:02:53;;;;;;;0.00;0.00;;;-2.70;93.40;;;;;;5118552;27;20055;-85
2021/12/26 09:05:19;;;;;;;0.00;0.00;;;-2.00;92.30;;;;;;5118806;27;20099;-84
2021/12/26 09:07:45;;;;;;;0.10;0.10;;;-1.90;88.60;;;;;;5118616;27;20137;-84
2021/12/26 09:10:13;;;;;;;6.50;0.90;;;-1.90;84.30;;;;;;5154112;27;20043;-84
2021/12/26 09:12:40;;;;;;;0.00;0.00;;;-1.90;85.10;;;;;;5139208;27;20058;-84
2021/12/26 09:15:08;;;;;;;0.00;0.00;;;-1.20;85.80;;;;;;5139042;27;20428;-84
2021/12/26 09:17:34;;;;;;;0.00;0.00;;;-2.10;81.90;;;;;;5156055;27;20049;-84
2021/12/26 09:20:00;;;;;;;0.00;0.00;;;-2.10;82.10;;;;;;5139006;27;20042;-84
2021/12/26 09:22:26;;;;;;;0.05;0.05;;;-2.10;81.70;;;;;;5138529;27;20098;-84
2021/12/26 09:24:52;;;;;;;0.00;0.00;;;-2.40;83.40;;;;;;5121163;27;20050;-84
2021/12/26 09:27:18;;;;;;;0.25;0.25;;;-2.20;82.10;;;;;;5118254;27;20039;-84
2021/12/26 09:29:44;;;;;;;0.00;0.00;;;-1.60;85.70;;;;;;5135412;27;20566;-84
2021/12/26 09:32:10;;;;;;;0.00;0.00;;;-0.70;80.10;;;;;;5118026;27;20055;-84
2021/12/26 09:34:36;;;;;;;0.35;0.35;;;-0.10;75.80;;;;;;5117854;27;20051;-83
2021/12/26 09:37:05;;;;;;;0.00;0.00;;;0.80;75.20;;;;;;5135311;27;20379;-86
2021/12/26 09:39:31;;;;;;;0.30;0.30;;;1.30;70.40;;;;;;5117698;27;20123;-84
2021/12/26 09:41:57;;;;;;;0.03;0.03;;;1.60;68.10;;;;;;5117934;27;20062;-84
2021/12/26 09:44:23;;;;;;;0.10;0.10;;;2.00;65.20;;;;;;5117792;27;20402;-84
2021/12/26 09:46:49;;;;;;;0.00;0.00;;;2.40;64.30;;;;;;5134679;27;20087;-84
2021/12/26 09:49:15;;;;;;;0.00;0.00;;;2.40;61.80;;;;;;5134581;27;20069;-83
2021/12/26 09:51:41;;;;;;;0.00;0.00;;;2.70;61.90;;;;;;5117292;27;20180;-84
2021/12/26 09:54:08;;;;;;;0.00;0.00;;;3.50;61.30;;;;;;5117475;27;20097;-84
2021/12/26 09:56:34;;;;;;;0.00;0.00;;;3.20;60.60;;;;;;5117691;27;20055;-85
2021/12/26 09:59:17;;;;;;;0.32;0.32;;;3.00;58.00;;;;;;5117181;27;20055;-84
2021/12/26 10:01:46;;;;;;;1.30;1.20;;;2.60;59.20;;;;;;5134450;27;20047;-84
2021/12/26 10:04:21;;;;;;;0.00;0.00;;;2.30;59.10;;;;;;5117437;27;20055;-83
2021/12/26 10:06:52;;;;;;;0.00;0.00;;;2.10;61.20;;;;;;5134591;27;20394;-84
2021/12/26 10:09:21;;;;;;;1.25;1.08;;;2.00;61.80;;;;;;5127515;27;20035;-84
2021/12/26 10:11:51;;;;;;;0.00;0.00;;;1.80;61.40;;;;;;5137521;27;20053;-84
2021/12/26 10:14:25;;;;;;;0.00;0.00;;;1.50;63.20;;;;;;5155383;27;20043;-86
2021/12/26 10:16:55;;;;;;;0.22;0.10;;;1.50;63.90;;;;;;5152387;27;20038;-84
2021/12/26 10:19:21;;;;;;;0.00;0.00;;;1.50;63.80;;;;;;5154497;27;20504;-84
2021/12/26 10:21:50;;;;;;;0.00;0.00;;;1.50;63.70;;;;;;5155002;27;20095;-84
2021/12/26 10:24:25;;;;;;;2.58;0.45;;;1.30;64.10;;;;;;5125447;27;20043;-84
2021/12/26 10:26:51;;;;;;;;;;;1.20;64.60;;;;;;5117357;27;20047;-84
2021/12/26 10:29:27;;;;;;;0.00;0.00;;;1.10;64.00;;;;;;5116915;27;19926;-84
2021/12/26 10:32:03;;;;;;;0.00;0.00;;;1.20;63.40;;;;;;5117045;27;20068;-86
2021/12/26 10:34:44;;;;;;;0.00;0.00;;;1.40;64.20;;;;;;5117807;27;20051;-85
2021/12/26 10:37:34;;;;;;;0.25;0.25;;;2.00;63.90;;;;;;5117438;27;20069;-84
2021/12/26 10:40:06;;;;;;;0.00;0.00;;;2.60;63.40;;;;;;5040174;28;20053;-86
2021/12/26 10:42:37;;;;;;;2.53;1.02;;;3.10;61.60;;;;;;5055915;28;20053;-84
2021/12/26 10:45:09;;;;;;;0.00;0.00;;;3.40;59.60;;;;;;5038786;28;20056;-84
2021/12/26 10:47:38;;;;;;;0.00;0.00;;;3.60;59.40;;;;;;5039303;28;20079;-82
2021/12/26 10:50:11;;;;;;;0.32;0.00;;;3.20;59.40;;;;;;5039283;28;20076;-86
2021/12/26 10:53:14;;;;;;;0.00;0.00;;;2.80;59.60;;;;;;5040940;28;20048;-89
2021/12/26 10:55:42;;;;;;;0.00;0.00;;;2.80;60.60;;;;;;4970193;28;20058;-87
2021/12/26 10:58:14;;;;;;;0.13;0.00;;;3.20;60.60;;;;;;4960811;28;20046;-89
2021/12/26 11:00:43;;;;;;;0.25;0.22;;;3.80;59.00;;;;;;4961101;28;20085;-89
2021/12/26 11:03:17;;;;;;;0.38;0.38;;;3.70;57.90;;;;;;4976770;28;20070;-83
2021/12/26 11:05:45;;;;;;;0.00;0.00;;;3.90;57.20;;;;;;4961050;28;20055;-84
2021/12/26 11:08:13;;;;;;;1.65;0.38;;;4.10;57.50;;;;;;4960910;28;20046;-83
2021/12/26 11:10:47;;;;;;;0.00;0.00;;;4.20;56.60;;;;;;4976900;28;20046;-83
2021/12/26 11:13:27;;;;;;;0.00;0.00;;;4.20;57.90;;;;;;4961073;28;20088;-83
2021/12/26 11:16:01;;;;;;;0.10;0.10;;;4.30;57.40;;;;;;4963097;28;20294;-84
2021/12/26 11:18:27;;;;;;;0.17;0.17;;;4.50;56.90;;;;;;5055197;28;20626;-82
2021/12/26 11:21:14;;;;;;;0.05;0.00;;;4.40;57.10;;;;;;5055057;28;20067;-82
2021/12/26 11:23:43;;;;;;;0.63;0.22;;;4.60;56.50;;;;;;5037837;28;20056;-82
2021/12/26 11:26:15;;;;;;;0.43;0.30;;;4.80;57.00;;;;;;5055065;28;20056;-83
2021/12/26 11:28:47;;;;;;;1.67;0.25;;;5.10;56.60;;;;;;5057653;28;20538;-82
2021/12/26 11:31:17;;;;;;;0.00;0.00;;;5.60;56.40;;;;;;5077259;28;20536;-80
2021/12/26 11:33:43;;;;;;;0.13;0.13;;;5.20;56.20;;;;;;5116193;28;20051;-81
2021/12/26 11:36:11;;;;;;;0.00;0.00;;;5.20;55.80;;;;;;5117356;28;20055;-81
2021/12/26 11:38:38;;;;;;;0.00;0.00;;;5.30;55.20;;;;;;5115589;27;20489;-82
2021/12/26 11:41:06;;;;;;;0.15;0.15;;;4.90;56.20;;;;;;5116211;28;20082;-80
2021/12/26 11:43:55;;;;;;;0.17;0.17;;;5.20;56.50;;;;;;5116824;27;20080;-81
2021/12/26 11:47:05;;;;;;;0.00;0.00;;;5.30;56.40;;;;;;5116398;28;20469;-81
2021/12/26 11:50:04;;;;;;;0.00;0.00;;;5.50;56.10;;;;;;5037891;28;20101;-81
2021/12/26 11:53:06;;;;;;;0.00;0.00;;;4.90;55.10;;;;;;5054447;28;20048;-81
2021/12/26 11:55:49;;;;;;;0.00;0.00;;;4.50;56.80;;;;;;5038358;28;20486;-82
2021/12/26 11:58:37;;;;;;;0.20;0.20;;;4.70;56.90;;;;;;5071483;28;20083;-82
2021/12/26 12:01:04;;;;;;;0.30;0.30;;;4.90;56.80;;;;;;5031772;28;20052;-81
2021/12/26 12:03:31;;;;;;;0.00;0.00;;;5.10;57.00;;;;;;5053088;28;20041;-82
2021/12/26 12:05:58;;;;;;;0.00;0.00;;;5.10;56.80;;;;;;5043199;28;20523;-82
2021/12/26 12:08:24;;;;;;;0.10;0.10;;;5.10;56.40;;;;;;5038761;28;20052;-81
2021/12/26 12:10:52;;;;;;;0.10;0.10;;;5.20;56.70;;;;;;5058318;28;20040;-81
2021/12/26 12:13:27;;;;;;;0.00;0.00;;;5.00;57.40;;;;;;5046716;28;20115;-81
2021/12/26 12:15:56;;;;;;;0.20;0.20;;;4.90;56.70;;;;;;5061546;28;20488;-82
2021/12/26 12:18:33;;;;;;;0.20;0.20;;;5.00;57.60;;;;;;5038517;28;20136;-82
2021/12/26 12:21:18;;;;;;;0.00;0.00;;;4.80;57.70;;;;;;5049202;28;20056;-82
2021/12/26 12:24:03;;;;;;;0.00;0.00;;;4.60;58.30;;;;;;5057298;28;20044;-82
2021/12/26 12:26:35;;;;;;;;;;;4.60;58.70;;;;;;5125433;27;20050;-82
2021/12/26 12:29:00;;;;;;;0.55;0.30;;;4.40;59.00;;;;;;5126155;27;20435;-83
2021/12/26 12:31:26;;;;;;;0.00;0.00;;;4.10;59.60;;;;;;5140854;27;20039;-82
2021/12/26 12:34:08;;;;;;;0.00;0.00;;;3.90;60.50;;;;;;5149516;27;20096;-82
2021/12/26 12:36:38;;;;;;;0.00;0.00;;;3.70;61.10;;;;;;5133404;27;20075;-81
2021/12/26 12:39:18;;;;;;;0.10;0.10;;;3.70;62.30;;;;;;5140870;27;20047;-81
2021/12/26 12:41:52;;;;;;;0.32;0.25;;;3.60;62.40;;;;;;5136578;27;20039;-82
2021/12/26 12:44:36;;;;;;;0.08;0.00;;;3.50;63.00;;;;;;5148798;27;20039;-80
2021/12/26 12:47:06;;;;;;;0.03;0.00;;;3.40;63.90;;;;;;5137945;27;20047;-80
2021/12/26 12:49:48;;;;;;;0.00;0.00;;;3.20;63.90;;;;;;5133849;27;20505;-82
2021/12/26 12:52:37;;;;;;;0.00;0.00;;;2.90;64.80;;;;;;5156697;27;20034;-82
2021/12/26 12:55:08;;;;;;;0.00;0.00;;;2.60;66.00;;;;;;5120122;27;20059;-81
2021/12/26 12:57:49;;;;;;;0.00;0.00;;;2.60;67.10;;;;;;5139070;27;20039;-82
2021/12/26 13:00:24;;;;;;;0.00;0.00;;;2.40;67.50;;;;;;5177790;27;20101;-84
2021/12/26 13:03:17;;;;;;;0.52;0.22;;;2.30;67.90;;;;;;5135823;27;20111;-89
2021/12/26 13:05:44;;;;;;;0.00;0.00;;;2.20;69.40;;;;;;5137472;27;20081;-86